PWSweather.com
Personal Weather Stations
Station Observations
SHAHALMS1
Eftra, Falkenberg, HA

EftraFalkenberg, HA

Lat: 56.85, Lon: 12.65

Elevation: 140

Station Type:

http://hem.passagen.se/risarp101

High Low Average
Temperature 41.9°F5.5°C 26.6°F-3.0°C 36.2°F2.3°C
Dew Point 37.0°F2.8°C 15.3°F-9.3°C 26.7°F-2.9°C
Winds 11.8 mph 19.0 kmh Calm Calm 6.0 mph W9.7 kmh W
Wind Gusts 28.3 mph45.5 kmh -- 14.0 mph22.5 kmh
Humidity 93% 51% 69%
Pressure 29.56 in1001.0 mb 29.21 in989.2 mb -
Precipitation 0.10 in2.5 mm - -
Hour Temp Dew Point Humidity Winds Wind Gusts Pressure Precip Precip Rate Daily Precip Total
12:00 AM 38.5°F3.6°C 34.4°F1.3°C 85% 10.9 mph WSW17.5 kmh WSW 20.8 mph33.5 kmh 29.21 in989.2 mb 0.00 in0.0 mm 0.00 in0.0 mm 0.00 in0.0 mm
12:15 AM 38.7°F3.7°C 34.5°F1.4°C 85% 9.7 mph W15.6 kmh W 20.0 mph32.2 kmh 29.21 in989.2 mb 0.00 in0.0 mm 0.00 in0.0 mm 0.00 in0.0 mm
12:30 AM 38.7°F3.7°C 34.2°F1.2°C 84% 10.5 mph W16.9 kmh W 21.1 mph34.0 kmh 29.24 in990.2 mb 0.00 in0.0 mm 0.00 in0.0 mm 0.00 in0.0 mm
12:45 AM 38.5°F3.6°C 34.4°F1.3°C 85% 10.9 mph W17.5 kmh W 23.6 mph38.0 kmh 29.24 in990.2 mb 0.00 in0.0 mm 0.00 in0.0 mm 0.00 in0.0 mm
01:00 AM 38.1°F3.4°C 34.6°F1.4°C 87% 8.7 mph W14.0 kmh W 16.5 mph26.6 kmh 29.24 in990.2 mb 0.05 in1.3 mm 0.07 in1.8 mm 0.05 in1.3 mm
01:15 AM 38.1°F3.4°C 34.9°F1.6°C 88% 8.7 mph WSW14.0 kmh WSW 19.0 mph30.6 kmh 29.24 in990.2 mb 0.05 in1.3 mm 0.00 in0.0 mm 0.05 in1.3 mm
01:30 AM 38.1°F3.4°C 35.2°F1.8°C 89% 8.2 mph W13.2 kmh W 15.7 mph25.3 kmh 29.24 in990.2 mb 0.05 in1.3 mm 0.00 in0.0 mm 0.05 in1.3 mm
01:45 AM 38.3°F3.5°C 35.6°F2.0°C 90% 7.6 mph W12.2 kmh W 20.8 mph33.5 kmh 29.24 in990.2 mb 0.05 in1.3 mm 0.00 in0.0 mm 0.05 in1.3 mm
02:00 AM 38.3°F3.5°C 35.6°F2.0°C 90% 6.9 mph W11.1 kmh W 12.5 mph20.1 kmh 29.21 in989.2 mb 0.00 in0.0 mm 0.00 in0.0 mm 0.05 in1.3 mm
02:15 AM 38.3°F3.5°C 35.9°F2.2°C 91% 6.2 mph W10.0 kmh W 15.0 mph24.1 kmh 29.24 in990.2 mb 0.00 in0.0 mm 0.00 in0.0 mm 0.05 in1.3 mm
02:30 AM 38.5°F3.6°C 36.1°F2.3°C 91% 5.6 mph W9.0 kmh W 13.6 mph21.9 kmh 29.27 in991.2 mb 0.00 in0.0 mm 0.00 in0.0 mm 0.05 in1.3 mm
02:45 AM 38.7°F3.7°C 36.5°F2.5°C 92% 5.9 mph W9.5 kmh W 13.6 mph21.9 kmh 29.24 in990.2 mb 0.00 in0.0 mm 0.00 in0.0 mm 0.05 in1.3 mm
03:00 AM 38.8°F3.8°C 37.0°F2.8°C 93% 7.1 mph NW11.4 kmh NW 14.0 mph22.5 kmh 29.24 in990.2 mb 0.00 in0.0 mm 0.00 in0.0 mm 0.05 in1.3 mm
03:15 AM 38.5°F3.6°C 36.6°F2.6°C 93% 7.2 mph NW11.6 kmh NW 17.5 mph28.2 kmh 29.24 in990.2 mb 0.00 in0.0 mm 0.00 in0.0 mm 0.05 in1.3 mm
03:30 AM 37.9°F3.3°C 36.1°F2.3°C 93% 6.8 mph NW10.9 kmh NW 12.5 mph20.1 kmh 29.27 in991.2 mb 0.00 in0.0 mm 0.00 in0.0 mm 0.05 in1.3 mm
03:45 AM 38.1°F3.4°C 36.3°F2.4°C 93% 6.2 mph WNW10.0 kmh WNW 12.5 mph20.1 kmh 29.30 in992.2 mb 0.00 in0.0 mm 0.00 in0.0 mm 0.05 in1.3 mm
04:00 AM 38.3°F3.5°C 36.5°F2.5°C 93% 8.0 mph WNW12.9 kmh WNW 16.5 mph26.6 kmh 29.30 in992.2 mb 0.00 in0.0 mm 0.00 in0.0 mm 0.05 in1.3 mm
04:15 AM 37.6°F3.1°C 34.9°F1.6°C 90% 11.5 mph NW18.5 kmh NW 20.8 mph33.5 kmh 29.30 in992.2 mb 0.00 in0.0 mm 0.00 in0.0 mm 0.05 in1.3 mm
04:30 AM 36.9°F2.7°C 33.6°F0.9°C 88% 11.8 mph NW19.0 kmh NW 28.3 mph45.5 kmh 29.33 in993.2 mb 0.00 in0.0 mm 0.00 in0.0 mm 0.05 in1.3 mm
04:45 AM 36.3°F2.4°C 32.8°F0.4°C 87% 8.1 mph NW13.0 kmh NW 17.2 mph27.7 kmh 29.33 in993.2 mb 0.00 in0.0 mm 0.00 in0.0 mm 0.05 in1.3 mm
05:00 AM 36.1°F2.3°C 32.6°F0.3°C 87% 8.1 mph NW13.0 kmh NW 19.0 mph30.6 kmh 29.33 in993.2 mb 0.00 in0.0 mm 0.00 in0.0 mm 0.05 in1.3 mm
05:15 AM 36.1°F2.3°C 32.6°F0.3°C 87% 9.7 mph WNW15.6 kmh WNW 22.2 mph35.7 kmh 29.36 in994.2 mb 0.00 in0.0 mm 0.00 in0.0 mm 0.05 in1.3 mm
05:30 AM 36.1°F2.3°C 32.4°F0.2°C 86% 8.1 mph WNW13.0 kmh WNW 19.3 mph31.1 kmh 29.36 in994.2 mb 0.00 in0.0 mm 0.00 in0.0 mm 0.05 in1.3 mm
05:45 AM 36.0°F2.2°C 31.9°F-0.1°C 85% 7.0 mph WNW11.3 kmh WNW 15.7 mph25.3 kmh 29.36 in994.2 mb 0.00 in0.0 mm 0.00 in0.0 mm 0.05 in1.3 mm
06:00 AM 35.8°F2.1°C 31.4°F-0.3°C 84% 7.1 mph W11.4 kmh W 14.0 mph22.5 kmh 29.36 in994.2 mb 0.00 in0.0 mm 0.00 in0.0 mm 0.05 in1.3 mm
06:15 AM 35.4°F1.9°C 31.1°F-0.5°C 84% 7.2 mph W11.6 kmh W 16.8 mph27.0 kmh 29.36 in994.2 mb 0.00 in0.0 mm 0.00 in0.0 mm 0.05 in1.3 mm
06:30 AM 35.2°F1.8°C 30.6°F-0.8°C 83% 7.8 mph W12.6 kmh W 17.2 mph27.7 kmh 29.36 in994.2 mb 0.00 in0.0 mm 0.00 in0.0 mm 0.05 in1.3 mm
06:45 AM 35.4°F1.9°C 30.5°F-0.8°C 82% 6.6 mph W10.6 kmh W 13.6 mph21.9 kmh 29.39 in995.3 mb 0.00 in0.0 mm 0.00 in0.0 mm 0.05 in1.3 mm
07:00 AM 35.4°F1.9°C 30.2°F-1.0°C 81% 7.9 mph W12.7 kmh W 17.2 mph27.7 kmh 29.39 in995.3 mb 0.00 in0.0 mm 0.00 in0.0 mm 0.05 in1.3 mm
07:15 AM 35.6°F2.0°C 30.6°F-0.8°C 82% 7.1 mph W11.4 kmh W 16.8 mph27.0 kmh 29.39 in995.3 mb 0.00 in0.0 mm 0.00 in0.0 mm 0.05 in1.3 mm
07:30 AM 35.8°F2.1°C 30.5°F-0.8°C 81% 8.3 mph W13.4 kmh W 19.7 mph31.7 kmh 29.39 in995.3 mb 0.00 in0.0 mm 0.00 in0.0 mm 0.05 in1.3 mm
07:45 AM 36.0°F2.2°C 29.4°F-1.4°C 77% 8.7 mph W14.0 kmh W 17.5 mph28.2 kmh 29.39 in995.3 mb 0.00 in0.0 mm 0.00 in0.0 mm 0.05 in1.3 mm
08:00 AM 36.1°F2.3°C 29.0°F-1.7°C 75% 7.9 mph W12.7 kmh W 15.7 mph25.3 kmh 29.39 in995.3 mb 0.00 in0.0 mm 0.00 in0.0 mm 0.05 in1.3 mm
08:15 AM 36.7°F2.6°C 29.5°F-1.4°C 75% 6.7 mph W10.8 kmh W 13.6 mph21.9 kmh 29.39 in995.3 mb 0.00 in0.0 mm 0.00 in0.0 mm 0.05 in1.3 mm
08:31 AM 36.9°F2.7°C 29.7°F-1.3°C 75% 6.5 mph W10.5 kmh W 12.5 mph20.1 kmh 29.41 in995.9 mb 0.00 in0.0 mm 0.00 in0.0 mm 0.05 in1.3 mm
08:38 AM 36.9°F2.7°C 29.7°F-1.3°C 75% 4.8 mph W7.7 kmh W 6.4 mph10.3 kmh 29.41 in995.9 mb 0.00 in0.0 mm 0.00 in0.0 mm 0.05 in1.3 mm
08:39 AM 36.9°F2.7°C 29.7°F-1.3°C 75% 4.7 mph WNW7.6 kmh WNW 6.4 mph10.3 kmh 29.41 in995.9 mb 0.00 in0.0 mm 0.00 in0.0 mm 0.05 in1.3 mm
08:40 AM 36.9°F2.7°C 29.7°F-1.3°C 75% 5.6 mph W9.0 kmh W 8.9 mph14.3 kmh 29.41 in995.9 mb 0.00 in0.0 mm 0.00 in0.0 mm 0.05 in1.3 mm
08:41 AM 36.9°F2.7°C 29.7°F-1.3°C 75% 5.5 mph W8.9 kmh W 8.9 mph14.3 kmh 29.41 in995.9 mb 0.00 in0.0 mm 0.00 in0.0 mm 0.05 in1.3 mm
08:45 AM 36.5°F2.5°C 29.3°F-1.5°C 75% 6.1 mph W9.8 kmh W 12.9 mph20.8 kmh 29.41 in995.9 mb 0.00 in0.0 mm 0.00 in0.0 mm 0.05 in1.3 mm
09:00 AM 37.8°F3.2°C 30.5°F-0.8°C 75% 7.2 mph W11.6 kmh W 15.7 mph25.3 kmh 29.41 in995.9 mb 0.00 in0.0 mm 0.00 in0.0 mm 0.05 in1.3 mm
09:15 AM 37.6°F3.1°C 29.4°F-1.4°C 72% 7.1 mph W11.4 kmh W 16.5 mph26.6 kmh 29.45 in997.3 mb 0.00 in0.0 mm 0.00 in0.0 mm 0.05 in1.3 mm
09:30 AM 38.7°F3.7°C 30.1°F-1.1°C 71% 6.1 mph WNW9.8 kmh WNW 14.0 mph22.5 kmh 29.41 in995.9 mb 0.00 in0.0 mm 0.00 in0.0 mm 0.05 in1.3 mm
09:45 AM 39.2°F4.0°C 29.5°F-1.4°C 68% 7.4 mph W11.9 kmh W 19.7 mph31.7 kmh 29.41 in995.9 mb 0.00 in0.0 mm 0.00 in0.0 mm 0.05 in1.3 mm
10:00 AM 38.8°F3.8°C 27.7°F-2.4°C 64% 7.8 mph WNW12.6 kmh WNW 16.8 mph27.0 kmh 29.41 in995.9 mb 0.00 in0.0 mm 0.00 in0.0 mm 0.05 in1.3 mm
10:15 AM 39.7°F4.3°C 28.5°F-1.9°C 64% 8.0 mph NW12.9 kmh NW 19.0 mph30.6 kmh 29.41 in995.9 mb 0.00 in0.0 mm 0.00 in0.0 mm 0.05 in1.3 mm
10:30 AM 40.3°F4.6°C 29.1°F-1.6°C 64% 7.0 mph NW11.3 kmh NW 16.5 mph26.6 kmh 29.41 in995.9 mb 0.00 in0.0 mm 0.00 in0.0 mm 0.05 in1.3 mm
10:45 AM 39.9°F4.4°C 28.7°F-1.8°C 64% 7.3 mph W11.7 kmh W 15.7 mph25.3 kmh 29.41 in995.9 mb 0.00 in0.0 mm 0.00 in0.0 mm 0.05 in1.3 mm
11:00 AM 40.1°F4.5°C 28.5°F-1.9°C 63% 8.9 mph W14.3 kmh W 17.5 mph28.2 kmh 29.41 in995.9 mb 0.00 in0.0 mm 0.00 in0.0 mm 0.05 in1.3 mm
11:15 AM 41.2°F5.1°C 30.3°F-0.9°C 65% 6.8 mph W10.9 kmh W 14.0 mph22.5 kmh 29.41 in995.9 mb 0.00 in0.0 mm 0.00 in0.0 mm 0.05 in1.3 mm
11:30 AM 41.9°F5.5°C 29.8°F-1.2°C 62% 7.8 mph W12.6 kmh W 17.5 mph28.2 kmh 29.41 in995.9 mb 0.00 in0.0 mm 0.00 in0.0 mm 0.05 in1.3 mm
11:45 AM 40.3°F4.6°C 27.1°F-2.7°C 59% 9.4 mph NW15.1 kmh NW 20.0 mph32.2 kmh 29.41 in995.9 mb 0.00 in0.0 mm 0.00 in0.0 mm 0.05 in1.3 mm
12:00 PM 40.3°F4.6°C 25.8°F-3.4°C 56% 11.3 mph NW18.2 kmh NW 25.1 mph40.4 kmh 29.39 in995.3 mb 0.00 in0.0 mm 0.00 in0.0 mm 0.05 in1.3 mm
12:15 PM 40.5°F4.7°C 28.8°F-1.8°C 63% 11.5 mph NW18.5 kmh NW 21.8 mph35.1 kmh 29.41 in995.9 mb 0.00 in0.0 mm 0.00 in0.0 mm 0.05 in1.3 mm
12:30 PM 41.0°F5.0°C 28.6°F-1.9°C 61% 9.9 mph NW15.9 kmh NW 21.1 mph34.0 kmh 29.39 in995.3 mb 0.00 in0.0 mm 0.00 in0.0 mm 0.05 in1.3 mm
12:45 PM 41.4°F5.2°C 27.3°F-2.6°C 57% 7.9 mph NW12.7 kmh NW 17.5 mph28.2 kmh 29.41 in995.9 mb 0.00 in0.0 mm 0.00 in0.0 mm 0.05 in1.3 mm
01:00 PM 40.3°F4.6°C 25.8°F-3.4°C 56% 11.0 mph NW17.7 kmh NW 23.6 mph38.0 kmh 29.41 in995.9 mb 0.05 in1.3 mm 0.07 in1.8 mm 0.10 in2.5 mm
01:15 PM 39.2°F4.0°C 24.8°F-4.0°C 56% 10.2 mph NW16.4 kmh NW 21.1 mph34.0 kmh 29.39 in995.3 mb 0.05 in1.3 mm 0.00 in0.0 mm 0.10 in2.5 mm
01:30 PM 38.7°F3.7°C 23.9°F-4.5°C 55% 9.1 mph NW14.6 kmh NW 19.7 mph31.7 kmh 29.41 in995.9 mb 0.05 in1.3 mm 0.00 in0.0 mm 0.10 in2.5 mm
01:45 PM 37.9°F3.3°C 23.6°F-4.7°C 56% 5.9 mph NW9.5 kmh NW 12.9 mph20.8 kmh 29.39 in995.3 mb 0.05 in1.3 mm 0.00 in0.0 mm 0.10 in2.5 mm
02:00 PM 37.8°F3.2°C 23.9°F-4.5°C 57% 6.0 mph NW9.7 kmh NW 14.0 mph22.5 kmh 29.41 in995.9 mb 0.00 in0.0 mm 0.00 in0.0 mm 0.10 in2.5 mm
02:15 PM 37.9°F3.3°C 23.2°F-4.9°C 55% 6.5 mph NW10.5 kmh NW 16.8 mph27.0 kmh 29.41 in995.9 mb 0.00 in0.0 mm 0.00 in0.0 mm 0.10 in2.5 mm
02:30 PM 38.3°F3.5°C 22.6°F-5.2°C 53% 10.3 mph NW16.6 kmh NW 19.0 mph30.6 kmh 29.41 in995.9 mb 0.00 in0.0 mm 0.00 in0.0 mm 0.10 in2.5 mm
02:45 PM 39.0°F3.9°C 23.3°F-4.8°C 53% 6.4 mph WNW10.3 kmh WNW 14.0 mph22.5 kmh 29.41 in995.9 mb 0.00 in0.0 mm 0.00 in0.0 mm 0.10 in2.5 mm
03:00 PM 39.4°F4.1°C 23.2°F-4.9°C 52% 6.5 mph WNW10.5 kmh WNW 13.6 mph21.9 kmh 29.41 in995.9 mb 0.00 in0.0 mm 0.00 in0.0 mm 0.10 in2.5 mm
03:15 PM 39.7°F4.3°C 23.1°F-4.9°C 51% 8.4 mph NW13.5 kmh NW 16.1 mph25.9 kmh 29.45 in997.3 mb 0.00 in0.0 mm 0.00 in0.0 mm 0.10 in2.5 mm
03:30 PM 39.7°F4.3°C 23.5°F-4.7°C 52% 8.0 mph NNW12.9 kmh NNW 16.8 mph27.0 kmh 29.41 in995.9 mb 0.00 in0.0 mm 0.00 in0.0 mm 0.10 in2.5 mm
03:45 PM 39.2°F4.0°C 23.0°F-5.0°C 52% 9.0 mph N14.5 kmh N 16.5 mph26.6 kmh 29.41 in995.9 mb 0.00 in0.0 mm 0.00 in0.0 mm 0.10 in2.5 mm
04:00 PM 38.7°F3.7°C 22.5°F-5.3°C 52% 7.8 mph N12.6 kmh N 14.0 mph22.5 kmh 29.45 in997.3 mb 0.00 in0.0 mm 0.00 in0.0 mm 0.10 in2.5 mm
04:15 PM 38.1°F3.4°C 22.5°F-5.3°C 53% 6.1 mph N9.8 kmh N 10.4 mph16.7 kmh 29.41 in995.9 mb 0.00 in0.0 mm 0.00 in0.0 mm 0.10 in2.5 mm
04:30 PM 37.6°F3.1°C 23.3°F-4.8°C 56% 6.1 mph NW9.8 kmh NW 11.5 mph18.5 kmh 29.41 in995.9 mb 0.00 in0.0 mm 0.00 in0.0 mm 0.10 in2.5 mm
04:45 PM 37.4°F3.0°C 24.0°F-4.4°C 58% 3.5 mph WNW5.6 kmh WNW 8.6 mph13.8 kmh 29.41 in995.9 mb 0.00 in0.0 mm 0.00 in0.0 mm 0.10 in2.5 mm
05:00 PM 37.8°F3.2°C 24.7°F-4.1°C 59% 4.2 mph NW6.8 kmh NW 9.7 mph15.6 kmh 29.45 in997.3 mb 0.00 in0.0 mm 0.00 in0.0 mm 0.10 in2.5 mm
05:15 PM 37.9°F3.3°C 24.9°F-3.9°C 59% 3.4 mph WNW5.5 kmh WNW 8.9 mph14.3 kmh 29.41 in995.9 mb 0.00 in0.0 mm 0.00 in0.0 mm 0.10 in2.5 mm
05:30 PM 37.8°F3.2°C 22.6°F-5.2°C 54% 6.5 mph NNW10.5 kmh NNW 10.4 mph16.7 kmh 29.41 in995.9 mb 0.00 in0.0 mm 0.00 in0.0 mm 0.10 in2.5 mm
05:45 PM 36.7°F2.6°C 22.0°F-5.6°C 55% 7.5 mph NW12.1 kmh NW 17.2 mph27.7 kmh 29.39 in995.3 mb 0.00 in0.0 mm 0.00 in0.0 mm 0.10 in2.5 mm
06:00 PM 36.0°F2.2°C 21.8°F-5.7°C 56% 5.9 mph NW9.5 kmh NW 12.2 mph19.6 kmh 29.41 in995.9 mb 0.00 in0.0 mm 0.00 in0.0 mm 0.10 in2.5 mm
06:15 PM 35.6°F2.0°C 20.6°F-6.3°C 54% 6.7 mph NNW10.8 kmh NNW 14.0 mph22.5 kmh 29.41 in995.9 mb 0.00 in0.0 mm 0.00 in0.0 mm 0.10 in2.5 mm
06:30 PM 35.4°F1.9°C 20.4°F-6.4°C 54% 7.1 mph N11.4 kmh N 12.5 mph20.1 kmh 29.45 in997.3 mb 0.00 in0.0 mm 0.00 in0.0 mm 0.10 in2.5 mm
06:45 PM 34.5°F1.4°C 19.6°F-6.9°C 54% 5.6 mph N9.0 kmh N 10.0 mph16.1 kmh 29.45 in997.3 mb 0.00 in0.0 mm 0.00 in0.0 mm 0.10 in2.5 mm
07:00 PM 33.6°F0.9°C 18.7°F-7.4°C 54% 2.1 mph NNW3.4 kmh NNW 7.9 mph12.7 kmh 29.45 in997.3 mb 0.00 in0.0 mm 0.00 in0.0 mm 0.10 in2.5 mm
07:15 PM 32.7°F0.4°C 18.3°F-7.6°C 55% 1.7 mph NNW2.7 kmh NNW 6.1 mph9.8 kmh 29.47 in998.0 mb 0.00 in0.0 mm 0.00 in0.0 mm 0.10 in2.5 mm
07:30 PM 32.0°F0.0°C 17.6°F-8.0°C 55% 0.1 mph NW0.2 kmh NW 3.6 mph5.8 kmh 29.47 in998.0 mb 0.00 in0.0 mm 0.00 in0.0 mm 0.10 in2.5 mm
07:45 PM 30.7°F-0.7°C 16.9°F-8.4°C 56% 0.2 mph NW0.3 kmh NW 3.6 mph5.8 kmh 29.47 in998.0 mb 0.00 in0.0 mm 0.00 in0.0 mm 0.10 in2.5 mm
08:00 PM 30.2°F-1.0°C 17.2°F-8.2°C 58% 0.2 mph NW0.3 kmh NW 5.0 mph8.0 kmh 29.47 in998.0 mb 0.00 in0.0 mm 0.00 in0.0 mm 0.10 in2.5 mm
08:15 PM 29.8°F-1.2°C 17.2°F-8.2°C 59% Calm Calm -- 29.47 in998.0 mb 0.00 in0.0 mm 0.00 in0.0 mm 0.10 in2.5 mm
08:30 PM 29.5°F-1.4°C 17.3°F-8.2°C 60% 1.1 mph W1.8 kmh W 6.8 mph10.9 kmh 29.47 in998.0 mb 0.00 in0.0 mm 0.00 in0.0 mm 0.10 in2.5 mm
08:45 PM 29.5°F-1.4°C 17.3°F-8.2°C 60% 1.0 mph WNW1.6 kmh WNW 5.7 mph9.2 kmh 29.50 in999.0 mb 0.00 in0.0 mm 0.00 in0.0 mm 0.10 in2.5 mm
09:00 PM 29.3°F-1.5°C 17.5°F-8.1°C 61% 2.1 mph WNW3.4 kmh WNW 6.8 mph10.9 kmh 29.50 in999.0 mb 0.00 in0.0 mm 0.00 in0.0 mm 0.10 in2.5 mm
09:15 PM 28.9°F-1.7°C 16.8°F-8.4°C 60% 1.1 mph NW1.8 kmh NW 7.5 mph12.1 kmh 29.53 in1000.0 mb 0.00 in0.0 mm 0.00 in0.0 mm 0.10 in2.5 mm
09:30 PM 28.9°F-1.7°C 16.8°F-8.4°C 60% 2.0 mph NW3.2 kmh NW 6.4 mph10.3 kmh 29.53 in1000.0 mb 0.00 in0.0 mm 0.00 in0.0 mm 0.10 in2.5 mm
09:45 PM 28.9°F-1.7°C 16.8°F-8.4°C 60% 2.3 mph NW3.7 kmh NW 5.4 mph8.7 kmh 29.53 in1000.0 mb 0.00 in0.0 mm 0.00 in0.0 mm 0.10 in2.5 mm
10:00 PM 28.6°F-1.9°C 16.8°F-8.4°C 61% 1.1 mph NW1.8 kmh NW 6.4 mph10.3 kmh 29.56 in1001.0 mb 0.00 in0.0 mm 0.00 in0.0 mm 0.10 in2.5 mm
10:15 PM 28.4°F-2.0°C 16.7°F-8.5°C 61% Calm Calm -- 29.53 in1000.0 mb 0.00 in0.0 mm 0.00 in0.0 mm 0.10 in2.5 mm
10:30 PM 28.0°F-2.2°C 16.3°F-8.7°C 61% Calm Calm -- 29.53 in1000.0 mb 0.00 in0.0 mm 0.00 in0.0 mm 0.10 in2.5 mm
10:45 PM 27.5°F-2.5°C 16.2°F-8.8°C 62% Calm Calm -- 29.56 in1001.0 mb 0.00 in0.0 mm 0.00 in0.0 mm 0.10 in2.5 mm
11:00 PM 27.1°F-2.7°C 15.8°F-9.0°C 62% Calm Calm -- 29.53 in1000.0 mb 0.00 in0.0 mm 0.00 in0.0 mm 0.10 in2.5 mm
11:15 PM 26.6°F-3.0°C 15.3°F-9.3°C 62% Calm Calm -- 29.53 in1000.0 mb 0.00 in0.0 mm 0.00 in0.0 mm 0.10 in2.5 mm
11:30 PM 26.6°F-3.0°C 16.1°F-8.8°C 64% 0.9 mph W1.4 kmh W 5.4 mph8.7 kmh 29.53 in1000.0 mb 0.00 in0.0 mm 0.00 in0.0 mm 0.10 in2.5 mm
11:45 PM 26.8°F-2.9°C 16.2°F-8.8°C 64% Calm Calm -- 29.50 in999.0 mb 0.00 in0.0 mm 0.00 in0.0 mm 0.10 in2.5 mm